Time;durP1;ratioP1;P1;durP2;ratioP2;P2;SDS_P1;SDS_P2;PMS_P1;PMS_P2;Temp;Humidity;BMP_temperature;BMP_pressure;BME280_temperature;BME280_humidity;BME280_pressure;Samples;Min_cycle;Max_cycle;Signal;HPM_P1;HPM_P2
2021/06/09 00:00:19;;;;;;;39.60;18.80;;;;;;;14.93;88.95;98844.72;5117352;28;20548;-95
2021/06/09 00:02:46;;;;;;;34.78;18.40;;;;;;;14.99;88.70;98852.47;5117189;28;20046;-94
2021/06/09 00:05:12;;;;;;;39.85;19.00;;;;;;;14.99;88.65;98836.41;5117572;28;20101;-95
2021/06/09 00:07:38;;;;;;;38.08;19.23;;;;;;;15.08;88.35;98840.50;5117727;28;20047;-94
2021/06/09 00:10:06;;;;;;;38.42;19.63;;;;;;;15.24;88.56;98864.78;5117298;28;20050;-94
2021/06/09 00:12:33;;;;;;;39.45;19.35;;;;;;;15.13;88.63;98839.34;5117799;28;20050;-95
2021/06/09 00:14:59;;;;;;;35.42;19.20;;;;;;;15.33;88.75;98859.00;5117374;28;20044;-95
2021/06/09 00:17:25;;;;;;;45.20;19.73;;;;;;;15.26;88.48;98838.78;5116865;28;20044;-95
2021/06/09 00:19:52;;;;;;;67.80;20.95;;;;;;;15.41;88.50;98851.50;5117351;28;20112;-93
2021/06/09 00:22:18;;;;;;;69.20;22.42;;;;;;;15.47;89.28;98866.44;5117610;28;20039;-94
2021/06/09 00:24:45;;;;;;;74.05;21.83;;;;;;;15.32;89.47;98836.72;5116648;28;20048;-95
2021/06/09 00:27:11;;;;;;;84.28;21.95;;;;;;;15.35;89.56;98841.06;5116365;28;20054;-94
2021/06/09 00:29:37;;;;;;;76.20;21.00;;;;;;;15.41;89.29;98846.13;5116261;28;20039;-94
2021/06/09 00:32:03;;;;;;;112.28;23.02;;;;;;;15.48;89.52;98857.44;5116378;28;20066;-95
2021/06/09 00:34:29;;;;;;;84.53;21.08;;;;;;;15.45;89.97;98869.19;5116363;28;20376;-95
2021/06/09 00:36:57;;;;;;;93.28;21.00;;;;;;;15.30;89.94;98854.66;5116211;28;20046;-95
2021/06/09 00:39:22;;;;;;;95.13;22.73;;;;;;;15.17;90.30;98843.63;5115501;28;20074;-95
2021/06/09 00:41:48;;;;;;;97.30;21.83;;;;;;;15.16;90.53;98849.06;5116321;28;20047;-94
2021/06/09 00:44:14;;;;;;;87.10;22.90;;;;;;;15.16;90.32;98839.22;5116088;28;20048;-95
2021/06/09 00:46:42;;;;;;;103.90;23.17;;;;;;;15.19;90.58;98840.88;5116021;28;20046;-95
2021/06/09 00:49:09;;;;;;;239.10;25.33;;;;;;;15.23;90.85;98837.13;5116008;28;20126;-94
2021/06/09 00:51:35;;;;;;;280.58;27.67;;;;;;;15.34;90.72;98861.63;5116571;28;20354;-95
2021/06/09 00:54:04;;;;;;;160.50;23.08;;;;;;;15.37;90.49;98858.78;5116192;28;20097;-94
2021/06/09 00:56:33;;;;;;;159.50;25.52;;;;;;;15.27;90.32;98846.78;5116091;28;20039;-94
2021/06/09 00:59:00;;;;;;;151.15;23.73;;;;;;;15.45;90.41;98868.31;5116615;28;20389;-96
2021/06/09 01:01:28;;;;;;;162.90;24.08;;;;;;;15.35;90.69;98851.78;5116550;28;20093;-93
2021/06/09 01:03:54;;;;;;;136.02;22.23;;;;;;;15.33;90.63;98846.50;5116285;28;20132;-94
2021/06/09 01:06:21;;;;;;;188.00;24.85;;;;;;;15.31;90.59;98843.03;5116426;28;20098;-96
2021/06/09 01:08:48;;;;;;;219.75;25.67;;;;;;;15.47;90.96;98871.81;5116282;28;20040;-94
2021/06/09 01:11:18;;;;;;;195.00;26.60;;;;;;;15.47;91.36;98866.44;5115704;28;20048;-94
2021/06/09 01:13:44;;;;;;;143.02;24.02;;;;;;;15.50;90.84;98859.09;5115445;28;20039;-96
2021/06/09 01:16:10;;;;;;;178.02;26.70;;;;;;;15.46;91.11;98853.97;5115734;28;20039;-95
2021/06/09 01:18:37;;;;;;;157.52;25.63;;;;;;;15.60;90.82;98864.94;5115793;28;20131;-94
2021/06/09 01:21:03;;;;;;;150.38;25.33;;;;;;;15.67;90.72;98861.03;5116066;28;20345;-95
2021/06/09 01:23:32;;;;;;;96.28;24.48;;;;;;;15.72;90.52;98869.78;5115437;28;20092;-94
2021/06/09 01:25:59;;;;;;;159.52;27.33;;;;;;;15.58;90.33;98842.69;5114991;28;20046;-95
2021/06/09 01:28:25;;;;;;;161.50;25.50;;;;;;;15.63;90.54;98843.34;5115036;28;20051;-96
2021/06/09 01:30:52;;;;;;;147.77;26.05;;;;;;;15.66;90.49;98851.25;5114921;28;20105;-95
2021/06/09 01:33:19;;;;;;;102.55;24.20;;;;;;;15.81;90.47;98868.47;5115206;28;20050;-96
2021/06/09 01:35:46;;;;;;;77.93;24.50;;;;;;;15.78;90.75;98852.50;5114912;28;20040;-96
2021/06/09 01:38:12;;;;;;;116.20;25.35;;;;;;;15.76;90.35;98849.91;5115091;28;20050;-94
2021/06/09 01:40:40;;;;;;;170.52;25.63;;;;;;;15.81;90.05;98852.38;5115061;28;20040;-95
2021/06/09 01:43:06;;;;;;;139.48;25.70;;;;;;;15.55;89.83;98837.50;5115227;28;20082;-96
2021/06/09 01:45:36;;;;;;;161.68;26.95;;;;;;;15.64;89.96;98842.41;5115029;28;20061;-94
2021/06/09 01:48:03;;;;;;;143.85;26.10;;;;;;;15.69;89.65;98855.59;5115520;28;20100;-94
2021/06/09 01:50:30;;;;;;;173.05;27.27;;;;;;;15.49;89.97;98829.72;5115593;28;20046;-94
2021/06/09 01:52:57;;;;;;;123.82;24.38;;;;;;;15.61;90.20;98853.25;5115132;28;20048;-93
2021/06/09 01:55:25;;;;;;;90.65;24.05;;;;;;;15.54;90.62;98828.56;5115661;28;20056;-94
2021/06/09 01:57:52;;;;;;;83.55;23.27;;;;;;;15.57;90.03;98846.28;5118503;28;20054;-95
2021/06/09 02:00:23;;;;;;;94.20;23.33;;;;;;;15.57;89.96;98839.16;5119125;28;20043;-95
2021/06/09 02:02:49;;;;;;;82.78;23.90;;;;;;;15.50;90.17;98826.09;5119154;28;20043;-95
2021/06/09 02:05:15;;;;;;;84.45;23.88;;;;;;;15.67;90.09;98844.94;5120296;28;20039;-95
2021/06/09 02:07:44;;;;;;;77.55;24.60;;;;;;;15.71;89.97;98846.56;5120815;28;20085;-95
2021/06/09 02:10:11;;;;;;;;;;;;;;;15.76;89.93;98847.22;5119246;28;20044;-93
2021/06/09 02:12:40;;;;;;;106.07;25.55;;;;;;;15.70;89.66;98839.44;5118844;28;19968;-94
2021/06/09 02:15:08;;;;;;;103.10;24.67;;;;;;;15.65;89.71;98836.09;5118694;28;20089;-94
2021/06/09 02:17:35;;;;;;;163.68;26.35;;;;;;;15.53;90.29;98842.91;5119045;28;20061;-94
2021/06/09 02:20:01;;;;;;;200.75;27.13;;;;;;;15.19;90.77;98819.44;5118576;28;20093;-93
2021/06/09 02:22:28;;;;;;;149.48;24.85;;;;;;;15.20;90.54;98829.22;5118629;28;20051;-95
2021/06/09 02:24:54;;;;;;;170.95;26.05;;;;;;;15.28;90.94;98829.75;5118753;28;20047;-95
2021/06/09 02:27:20;;;;;;;133.25;25.92;;;;;;;15.23;91.10;98820.19;5118141;28;20051;-94
2021/06/09 02:29:46;;;;;;;121.25;24.98;;;;;;;15.22;91.13;98831.84;5118372;28;20036;-95
2021/06/09 02:32:16;;;;;;;136.80;24.50;;;;;;;15.21;91.12;98825.63;5118385;28;20130;-94
2021/06/09 02:34:42;;;;;;;139.15;23.48;;;;;;;15.12;90.51;98813.50;5117986;28;20500;-94
2021/06/09 02:37:09;;;;;;;124.40;26.00;;;;;;;15.30;90.79;98832.38;5117659;28;20113;-94
2021/06/09 02:39:35;;;;;;;60.67;22.70;;;;;;;15.25;91.02;98818.31;5118080;28;20070;-96
2021/06/09 02:42:01;;;;;;;69.80;21.27;;;;;;;15.36;90.37;98824.91;5118444;28;20075;-95
2021/06/09 02:44:27;;;;;;;81.10;21.05;;;;;;;15.46;90.24;98829.84;5118161;28;20476;-96
2021/06/09 02:46:57;;;;;;;46.17;19.98;;;;;;;15.43;89.44;98840.72;5118306;28;20054;-94
2021/06/09 02:49:27;;;;;;;60.33;21.23;;;;;;;15.38;89.44;98831.06;5118063;28;20381;-95
2021/06/09 02:51:58;;;;;;;51.65;21.10;;;;;;;15.18;89.56;98809.69;5118368;28;20500;-95
2021/06/09 02:54:33;;;;;;;41.40;19.60;;;;;;;15.32;89.21;98839.38;5117649;28;20048;-96
2021/06/09 02:57:04;;;;;;;47.03;20.95;;;;;;;15.17;89.16;98805.25;5117747;28;20039;-95
2021/06/09 02:59:43;;;;;;;44.60;19.98;;;;;;;15.22;89.08;98819.31;5117754;28;20086;-94
2021/06/09 03:02:17;;;;;;;42.80;20.88;;;;;;;15.25;89.38;98821.00;5117987;28;20046;-95
2021/06/09 03:04:49;;;;;;;59.00;19.35;;;;;;;15.21;89.20;98812.22;5117872;28;20039;-95
2021/06/09 03:07:23;;;;;;;82.00;22.15;;;;;;;15.17;89.47;98814.16;5117772;28;20500;-94
2021/06/09 03:10:02;;;;;;;58.25;20.40;;;;;;;15.20;89.39;98816.72;5119433;28;20044;-96
2021/06/09 03:12:40;;;;;;;57.17;19.80;;;;;;;15.11;89.17;98813.56;5119731;27;20550;-94
2021/06/09 03:18:15;;;;;;;50.22;18.38;;;;;;;15.00;88.50;98806.88;5152572;27;20360;-93
2021/06/09 03:20:50;;;;;;;30.63;16.35;;;;;;;14.95;88.81;98800.84;5135097;27;20450;-95
2021/06/09 03:23:29;;;;;;;31.83;17.20;;;;;;;14.96;88.92;98801.72;5135655;27;20063;-95
2021/06/09 03:26:00;;;;;;;66.93;18.50;;;;;;;15.10;88.75;98819.88;5135085;27;20043;-96
2021/06/09 03:28:31;;;;;;;73.25;19.60;;;;;;;15.14;88.91;98825.03;5135330;27;20388;-92
2021/06/09 03:31:01;;;;;;;81.18;19.77;;;;;;;15.04;88.65;98804.06;5134115;27;20059;-96
2021/06/09 03:33:34;;;;;;;49.53;18.13;;;;;;;15.06;88.74;98805.75;5134466;27;20043;-96
2021/06/09 03:36:04;;;;;;;64.80;19.52;;;;;;;15.08;88.93;98805.69;5135384;27;20085;-95
2021/06/09 03:38:34;;;;;;;71.00;18.88;;;;;;;15.05;89.23;98809.38;5135197;27;20579;-94
2021/06/09 03:41:03;;;;;;;128.90;22.73;;;;;;;15.06;89.46;98810.22;5134005;27;20527;-94
2021/06/09 03:43:34;;;;;;;105.15;23.23;;;;;;;15.15;89.94;98831.25;5133205;27;20039;-95
2021/06/09 03:46:01;;;;;;;169.90;26.23;;;;;;;15.15;90.32;98841.97;5134252;27;20048;-95
2021/06/09 03:48:32;;;;;;;74.32;23.35;;;;;;;15.11;90.85;98822.47;5133887;27;20043;-94
2021/06/09 03:51:00;;;;;;;132.70;25.30;;;;;;;15.26;90.55;98847.69;5133879;27;20040;-95
2021/06/09 03:53:27;;;;;;;69.30;21.83;;;;;;;15.24;90.38;98835.31;5134514;27;20039;-96
2021/06/09 03:55:56;;;;;;;106.68;23.83;;;;;;;15.16;90.01;98817.78;5132876;27;20045;-94
2021/06/09 03:58:24;;;;;;;;;;;;;;;15.33;90.16;98846.50;5133912;27;20043;-96
2021/06/09 04:00:52;;;;;;;97.28;22.92;;;;;;;15.26;90.05;98822.72;5134321;28;20366;-95
2021/06/09 04:03:19;;;;;;;82.13;23.13;;;;;;;15.41;89.47;98841.63;5133476;27;20050;-95
2021/06/09 04:05:48;;;;;;;55.35;23.58;;;;;;;15.38;89.77;98831.06;5133064;27;20561;-96
2021/06/09 04:08:16;;;;;;;61.80;23.80;;;;;;;15.41;90.00;98825.56;5132569;27;20044;-96
2021/06/09 04:10:44;;;;;;;86.63;23.77;;;;;;;15.58;89.73;98845.38;5132794;27;20130;-94
2021/06/09 04:13:12;;;;;;;78.88;23.08;;;;;;;15.45;88.58;98830.81;5132978;27;20035;-95
2021/06/09 04:15:38;;;;;;;67.00;22.65;;;;;;;15.60;88.55;98857.75;5133176;27;20373;-94
2021/06/09 04:18:06;;;;;;;66.38;22.23;;;;;;;15.56;88.31;98857.97;5132637;27;20047;-96
2021/06/09 04:20:33;;;;;;;59.80;21.45;;;;;;;15.50;88.48;98850.22;5133929;27;20046;-96
2021/06/09 04:23:01;;;;;;;69.22;22.50;;;;;;;15.35;89.21;98843.72;5133779;27;20044;-96
2021/06/09 04:25:27;;;;;;;66.80;23.50;;;;;;;15.37;89.12;98837.34;5133521;27;20074;-95
2021/06/09 04:27:54;;;;;;;49.58;22.13;;;;;;;15.37;89.13;98831.13;5127566;27;20051;-95
2021/06/09 04:30:22;;;;;;;126.40;24.40;;;;;;;15.44;88.67;98831.72;5120055;28;20047;-94
2021/06/09 04:32:53;;;;;;;107.60;24.67;;;;;;;15.44;88.02;98832.63;5120689;28;20043;-95
2021/06/09 04:35:20;;;;;;;54.80;21.08;;;;;;;15.47;88.84;98845.00;5119268;28;20071;-96
2021/06/09 04:37:46;;;;;;;147.80;25.52;;;;;;;15.39;87.55;98827.44;5119320;28;20047;-94
2021/06/09 04:40:19;;;;;;;82.47;21.10;;;;;;;15.44;88.65;98829.03;5119807;28;20039;-95
2021/06/09 04:42:47;;;;;;;122.32;21.30;;;;;;;15.39;88.03;98822.09;5120814;28;20040;-96
2021/06/09 04:45:14;;;;;;;128.17;21.20;;;;;;;15.51;87.69;98851.97;5120162;28;20052;-95
2021/06/09 04:47:41;;;;;;;73.50;20.25;;;;;;;15.45;88.02;98831.66;5119075;28;20503;-96
2021/06/09 04:50:18;;;;;;;45.63;18.67;;;;;;;15.59;88.34;98849.78;5124848;28;20047;-95
2021/06/09 04:52:44;;;;;;;41.45;19.02;;;;;;;15.62;87.65;98828.22;5119545;28;20135;-94
2021/06/09 04:55:11;;;;;;;47.45;16.95;;;;;;;15.94;85.40;98841.91;5119520;28;20052;-95
2021/06/09 04:57:39;;;;;;;40.92;17.02;;;;;;;16.00;85.56;98850.56;5119866;28;20047;-95
2021/06/09 05:00:08;;;;;;;36.03;17.27;;;;;;;15.81;85.86;98831.78;5120737;28;20044;-96
2021/06/09 05:02:34;;;;;;;53.47;16.67;;;;;;;15.82;85.21;98822.78;5120840;28;20126;-95
2021/06/09 05:05:00;;;;;;;46.30;16.42;;;;;;;15.87;84.84;98827.94;5123017;28;20054;-95
2021/06/09 05:07:26;;;;;;;36.72;16.95;;;;;;;15.79;85.05;98817.59;5121668;28;20047;-96
2021/06/09 05:09:52;;;;;;;37.97;16.20;;;;;;;15.77;85.24;98822.16;5120124;28;20044;-94
2021/06/09 05:12:24;;;;;;;31.17;17.83;;;;;;;15.75;85.64;98824.03;5120883;28;20515;-95
2021/06/09 05:14:57;;;;;;;33.08;17.33;;;;;;;15.87;85.75;98822.56;5102221;28;20052;-95
2021/06/09 05:17:26;;;;;;;33.42;18.08;;;;;;;15.96;85.75;98848.06;5102717;28;20503;-95
2021/06/09 05:19:54;;;;;;;34.28;16.70;;;;;;;15.94;84.88;98839.22;5116632;28;20044;-92
2021/06/09 05:22:26;;;;;;;30.45;16.58;;;;;;;16.06;84.36;98827.94;5124606;28;20047;-95
2021/06/09 05:24:54;;;;;;;32.30;16.67;;;;;;;16.18;82.89;98816.59;5123764;28;20056;-95
2021/06/09 05:27:23;;;;;;;32.42;17.88;;;;;;;16.36;84.12;98844.34;5122839;28;20043;-95
2021/06/09 05:29:51;;;;;;;32.55;17.90;;;;;;;16.47;82.51;98835.75;5103792;28;20048;-94
2021/06/09 05:32:18;;;;;;;33.33;18.33;;;;;;;16.45;82.04;98816.16;5123206;28;20069;-95
2021/06/09 05:34:46;;;;;;;34.30;18.42;;;;;;;16.45;82.79;98818.84;5125190;28;20039;-96
2021/06/09 05:37:14;;;;;;;30.27;16.73;;;;;;;17.05;79.73;98829.25;5123672;28;20040;-93
2021/06/09 05:39:41;;;;;;;28.10;16.30;;;;;;;17.11;78.88;98802.06;5121446;28;20071;-95
2021/06/09 05:42:08;;;;;;;30.10;17.77;;;;;;;17.32;79.44;98812.59;5123342;28;20264;-96
2021/06/09 05:44:34;;;;;;;28.48;15.95;;;;;;;17.61;77.41;98817.25;5124250;28;20051;-94
2021/06/09 05:47:03;;;;;;;27.98;16.50;;;;;;;17.70;76.29;98805.13;5123477;28;20052;-95
2021/06/09 05:49:29;;;;;;;32.42;18.05;;;;;;;17.46;76.76;98818.09;5122649;28;20047;-95
2021/06/09 05:51:56;;;;;;;27.60;16.88;;;;;;;17.40;76.52;98811.22;5121428;28;20044;-96
2021/06/09 05:54:23;;;;;;;27.67;17.58;;;;;;;17.18;78.16;98824.97;5118198;28;20113;-94
2021/06/09 05:56:49;;;;;;;32.17;18.75;;;;;;;17.05;80.17;98823.88;5116969;28;20126;-95
2021/06/09 05:59:16;;;;;;;28.63;17.83;;;;;;;17.40;77.67;98819.28;5118027;28;20044;-94
2021/06/09 06:01:44;;;;;;;30.02;18.75;;;;;;;18.04;76.26;98819.38;5118085;28;20050;-96
2021/06/09 06:04:12;;;;;;;29.88;18.58;;;;;;;18.94;73.81;98807.88;5117635;28;20100;-95
2021/06/09 06:06:39;;;;;;;30.83;18.15;;;;;;;18.93;74.72;98824.13;5117150;28;20092;-95
2021/06/09 06:09:05;;;;;;;30.33;18.25;;;;;;;19.45;73.65;98821.78;5115495;28;20039;-93
2021/06/09 06:11:33;;;;;;;27.65;16.75;;;;;;;19.86;72.09;98823.72;5115569;28;20039;-95
2021/06/09 06:14:05;;;;;;;27.33;17.50;;;;;;;19.85;71.68;98826.53;5115434;27;20040;-94
2021/06/09 06:16:31;;;;;;;26.40;17.52;;;;;;;19.81;71.38;98824.97;5114899;27;20384;-94
2021/06/09 06:18:57;;;;;;;28.17;17.85;;;;;;;20.02;71.29;98828.13;5115448;28;20069;-94
2021/06/09 06:21:25;;;;;;;27.63;17.88;;;;;;;20.33;70.82;98818.03;5116200;28;20040;-94
2021/06/09 06:23:52;;;;;;;28.92;16.88;;;;;;;20.33;70.61;98834.22;5114297;28;20389;-93
2021/06/09 06:26:19;;;;;;;26.98;18.00;;;;;;;20.33;69.06;98826.97;5115610;28;20042;-96
2021/06/09 06:28:45;;;;;;;29.15;17.75;;;;;;;20.06;69.87;98829.66;5115359;28;20089;-94
2021/06/09 06:31:14;;;;;;;28.38;17.45;;;;;;;19.81;71.66;98819.59;5115176;28;20032;-96
2021/06/09 06:33:41;;;;;;;;;;;;;;;19.44;73.06;98843.47;5117841;28;20493;-94
2021/06/09 06:36:08;;;;;;;32.50;19.10;;;;;;;19.22;73.68;98827.75;5118630;28;20394;-95
2021/06/09 06:38:37;;;;;;;31.63;19.30;;;;;;;19.19;74.18;98815.34;5117242;28;20047;-95
2021/06/09 06:41:03;;;;;;;32.75;19.52;;;;;;;19.70;72.47;98841.84;5114496;28;20058;-94
2021/06/09 06:43:29;;;;;;;31.73;20.02;;;;;;;19.73;71.97;98827.28;5115460;28;20101;-96
2021/06/09 06:45:55;;;;;;;36.28;19.63;;;;;;;19.83;70.87;98837.41;5114469;28;20039;-94
2021/06/09 06:48:22;;;;;;;32.28;19.60;;;;;;;20.30;69.93;98829.91;5115503;28;20050;-95
2021/06/09 06:50:48;;;;;;;28.45;18.92;;;;;;;20.70;68.82;98828.09;5110594;28;20059;-94
2021/06/09 06:53:15;;;;;;;31.50;19.35;;;;;;;20.86;67.88;98827.94;5113198;28;20028;-91
2021/06/09 06:55:42;;;;;;;32.03;19.65;;;;;;;21.00;66.99;98812.63;5114366;28;20035;-94
2021/06/09 06:58:09;;;;;;;33.20;18.92;;;;;;;21.31;65.66;98816.75;5114784;28;20036;-93
2021/06/09 07:00:35;;;;;;;29.88;19.60;;;;;;;21.63;66.42;98825.31;5115822;28;20148;-95
2021/06/09 07:03:02;;;;;;;31.27;19.25;;;;;;;21.97;64.25;98809.34;5115340;28;20039;-95
2021/06/09 07:05:32;;;;;;;29.77;18.67;;;;;;;22.26;63.08;98822.59;5114353;28;20031;-93
2021/06/09 07:08:01;;;;;;;28.55;18.92;;;;;;;21.71;66.17;98816.66;5114529;28;20362;-95
2021/06/09 07:10:27;;;;;;;33.28;19.20;;;;;;;21.70;65.90;98834.72;5115508;28;20039;-93
2021/06/09 07:12:59;;;;;;;30.08;19.60;;;;;;;21.58;66.01;98808.53;5114383;28;20052;-93
2021/06/09 07:15:30;;;;;;;27.63;18.58;;;;;;;21.56;66.66;98826.72;5115285;28;20040;-94
2021/06/09 07:17:57;;;;;;;;;;;;;;;21.71;65.84;98836.47;5115251;28;20052;-94
2021/06/09 07:20:25;;;;;;;29.45;18.67;;;;;;;21.80;65.16;98834.06;5112991;28;19966;-93
2021/06/09 07:22:53;;;;;;;28.80;19.43;;;;;;;21.26;66.85;98843.25;5114465;28;20044;-93
2021/06/09 07:25:20;;;;;;;30.63;19.67;;;;;;;20.81;69.23;98840.91;5115496;28;20047;-94
2021/06/09 07:27:50;;;;;;;33.67;19.83;;;;;;;20.51;70.11;98832.97;5116604;28;20118;-92
2021/06/09 07:30:19;;;;;;;31.67;19.88;;;;;;;20.61;70.73;98833.28;5115812;28;20046;-94
2021/06/09 07:32:47;;;;;;;29.23;20.08;;;;;;;21.13;69.70;98835.97;5116304;28;20050;-93
2021/06/09 07:35:14;;;;;;;34.85;21.17;;;;;;;21.59;69.75;98834.63;5116202;28;20054;-94
2021/06/09 07:37:43;;;;;;;31.67;19.58;;;;;;;21.91;67.54;98826.03;5113986;28;20027;-93
2021/06/09 07:40:14;;;;;;;31.52;19.80;;;;;;;21.77;66.37;98834.28;5114803;28;20047;-93
2021/06/09 07:42:44;;;;;;;29.27;19.20;;;;;;;21.73;67.31;98823.69;5114648;28;20043;-92
2021/06/09 07:45:12;;;;;;;33.75;19.30;;;;;;;21.82;66.86;98832.97;5113121;28;20044;-94
2021/06/09 07:47:45;;;;;;;29.08;19.13;;;;;;;21.38;68.64;98842.38;5114904;28;20032;-93
2021/06/09 07:53:30;;;;;;;29.50;20.52;;;;;;;22.46;67.42;98834.66;5145901;27;20490;-92
2021/06/09 07:55:57;;;;;;;32.78;19.40;;;;;;;22.54;66.68;98840.38;5126291;27;20043;-91
2021/06/09 07:58:27;;;;;;;29.40;17.95;;;;;;;22.75;64.71;98827.91;5118477;28;20123;-93
2021/06/09 08:00:54;;;;;;;30.15;19.13;;;;;;;23.07;65.25;98813.72;5118745;28;20063;-92
2021/06/09 08:03:23;;;;;;;31.88;20.35;;;;;;;23.32;63.79;98804.53;5132357;27;20082;-93
2021/06/09 08:05:49;;;;;;;;;;;;;;;23.66;64.98;98825.41;5121633;28;20059;-92
2021/06/09 08:08:14;;;;;;;30.20;19.73;;;;;;;23.79;63.43;98812.63;5115851;28;19927;-92
2021/06/09 08:10:43;;;;;;;24.60;17.83;;;;;;;23.99;60.68;98806.41;5124578;27;20468;-91
2021/06/09 08:13:10;;;;;;;23.20;16.95;;;;;;;24.21;61.45;98823.66;5115977;28;20085;-91
2021/06/09 08:15:37;;;;;;;26.35;16.60;;;;;;;24.46;60.53;98805.31;5118358;28;20485;-91
2021/06/09 08:18:04;;;;;;;24.58;16.83;;;;;;;24.02;60.03;98793.56;5123465;28;20484;-91
2021/06/09 08:20:31;;;;;;;24.58;16.65;;;;;;;24.48;60.74;98816.91;5123824;27;20047;-91
2021/06/09 08:22:57;;;;;;;25.88;17.25;;;;;;;24.32;60.11;98815.47;5117450;27;20055;-90
2021/06/09 08:25:24;;;;;;;25.80;17.38;;;;;;;24.66;61.06;98812.69;5120698;27;20039;-92
2021/06/09 08:27:53;;;;;;;26.30;17.13;;;;;;;24.95;59.07;98801.19;5118381;27;20062;-90
2021/06/09 08:30:22;;;;;;;21.40;16.52;;;;;;;25.30;58.21;98800.88;5116031;27;20047;-89
2021/06/09 08:32:48;;;;;;;21.25;16.17;;;;;;;25.46;59.05;98800.41;5119146;28;20035;-92
2021/06/09 08:35:14;;;;;;;22.92;14.90;;;;;;;25.38;57.28;98803.78;5118562;27;20130;-91
2021/06/09 08:37:41;;;;;;;22.88;16.13;;;;;;;25.27;56.07;98819.34;5122502;27;20119;-92
2021/06/09 08:40:09;;;;;;;18.58;14.27;;;;;;;25.48;55.46;98797.53;5122492;28;20036;-93
2021/06/09 08:42:37;;;;;;;18.83;13.95;;;;;;;25.70;54.21;98800.09;5114933;28;20444;-91
2021/06/09 08:45:07;;;;;;;20.13;12.70;;;;;;;25.24;51.08;98790.50;5121503;27;20107;-91
2021/06/09 08:47:34;;;;;;;20.02;12.32;;;;;;;24.70;50.59;98802.41;5107899;28;20485;-93
2021/06/09 08:50:00;;;;;;;15.10;12.05;;;;;;;24.96;53.27;98795.63;5115193;28;20032;-91
2021/06/09 08:52:28;;;;;;;15.15;11.73;;;;;;;25.56;47.42;98816.78;5118414;28;20048;-91
2021/06/09 08:54:54;;;;;;;18.08;11.60;;;;;;;25.85;47.47;98811.47;5118214;28;20070;-90
2021/06/09 08:57:20;;;;;;;15.95;12.05;;;;;;;26.09;49.50;98813.88;5109051;28;20059;-90
2021/06/09 08:59:46;;;;;;;16.58;11.73;;;;;;;26.46;48.75;98806.91;5120153;27;20141;-91
2021/06/09 09:02:14;;;;;;;18.08;12.57;;;;;;;26.67;47.80;98807.69;5118643;27;20058;-92
2021/06/09 09:04:41;;;;;;;17.30;12.17;;;;;;;26.71;48.20;98803.66;5107746;28;20447;-92
2021/06/09 09:07:08;;;;;;;14.77;12.23;;;;;;;26.66;45.53;98819.59;5101359;28;20142;-91
2021/06/09 09:09:36;;;;;;;17.35;12.73;;;;;;;25.61;47.09;98799.03;5104466;28;20044;-89
2021/06/09 09:12:02;;;;;;;15.57;12.82;;;;;;;25.80;50.13;98820.03;5110715;28;20032;-90
2021/06/09 09:14:28;;;;;;;16.88;13.00;;;;;;;25.49;51.87;98807.44;5106345;28;20122;-89
2021/06/09 09:17:01;;;;;;;16.50;13.60;;;;;;;25.18;47.98;98807.38;5104970;28;20126;-91
2021/06/09 09:19:32;;;;;;;16.45;13.30;;;;;;;25.21;47.60;98802.53;5100868;28;20039;-91
2021/06/09 09:21:58;;;;;;;16.52;12.50;;;;;;;25.19;48.95;98798.19;5109550;28;20048;-94
2021/06/09 09:24:38;;;;;;;16.83;12.85;;;;;;;25.80;48.89;98806.41;5101244;28;20044;-89
2021/06/09 09:27:05;;;;;;;16.33;12.63;;;;;;;26.27;48.93;98794.13;5103045;28;20052;-91
2021/06/09 09:29:31;;;;;;;18.58;12.80;;;;;;;26.49;45.92;98791.13;5105499;28;20404;-90
2021/06/09 09:31:58;;;;;;;18.20;12.15;;;;;;;26.46;46.33;98796.00;5101380;28;20090;-90
2021/06/09 09:34:34;;;;;;;18.80;12.98;;;;;;;26.48;47.06;98799.44;5102252;28;20044;-91
2021/06/09 09:37:09;;;;;;;17.63;12.75;;;;;;;26.14;46.21;98799.84;5096582;28;20036;-90
2021/06/09 09:39:36;;;;;;;14.90;12.50;;;;;;;26.05;47.16;98797.94;5095076;28;20035;-91
2021/06/09 09:42:33;;;;;;;13.95;12.43;;;;;;;25.34;46.40;98790.59;5093047;28;20036;-93
2021/06/09 09:45:26;;;;;;;16.20;12.65;;;;;;;25.45;47.81;98797.81;5033849;28;20123;-92
2021/06/09 09:48:12;;;;;;;15.40;12.50;;;;;;;25.79;46.32;98801.13;5030982;28;20164;-92
2021/06/09 09:50:42;;;;;;;14.88;12.55;;;;;;;25.86;45.89;98782.38;5030277;28;20386;-93
2021/06/09 09:56:10;;;;;;;16.10;11.95;;;;;;;26.40;45.44;98784.66;5129200;27;20143;-92
2021/06/09 09:58:38;;;;;;;16.13;12.05;;;;;;;26.73;42.65;98779.81;5112847;28;20043;-91
2021/06/09 10:01:16;;;;;;;16.85;12.05;;;;;;;26.81;42.89;98782.69;5105785;28;20125;-92
2021/06/09 10:03:43;;;;;;;17.47;11.87;;;;;;;26.97;43.11;98779.38;5116256;28;20079;-94
2021/06/09 10:06:17;;;;;;;15.30;12.10;;;;;;;27.32;41.58;98782.50;5111819;28;20280;-90
2021/06/09 10:08:43;;;;;;;14.45;11.80;;;;;;;27.30;41.93;98766.25;5114759;28;20142;-92
2021/06/09 10:11:11;;;;;;;13.75;11.27;;;;;;;27.62;42.38;98765.88;5113027;28;20496;-91
2021/06/09 10:13:37;;;;;;;14.32;11.63;;;;;;;27.92;42.91;98777.56;5114641;28;20051;-93
2021/06/09 10:16:19;;;;;;;17.60;12.60;;;;;;;27.04;40.04;98771.47;5113767;28;20397;-95
2021/06/09 10:18:56;;;;;;;14.30;11.57;;;;;;;26.90;41.47;98774.66;5098912;28;20388;-95
2021/06/09 10:21:21;;;;;;;15.57;11.38;;;;;;;27.22;40.65;98779.81;5096973;28;20520;-94
2021/06/09 10:23:47;;;;;;;13.32;10.98;;;;;;;27.24;39.70;98766.88;5102947;28;20040;-91
2021/06/09 10:26:17;;;;;;;15.27;9.85;;;;;;;27.30;34.54;98766.25;5113378;28;20048;-95
2021/06/09 10:29:02;;;;;;;11.90;10.20;;;;;;;27.66;35.81;98783.69;5113005;28;20040;-93
2021/06/09 10:31:29;;;;;;;12.52;10.50;;;;;;;27.51;36.43;98766.06;5111916;28;20051;-94
2021/06/09 10:33:56;;;;;;;11.68;10.18;;;;;;;27.34;36.23;98758.66;5113002;28;20128;-91
2021/06/09 10:36:22;;;;;;;11.75;9.70;;;;;;;27.42;34.68;98761.50;5111673;28;20401;-95
2021/06/09 10:38:49;;;;;;;11.73;9.80;;;;;;;28.00;36.49;98779.56;5112287;28;20065;-93
2021/06/09 10:41:17;;;;;;;12.18;10.35;;;;;;;27.76;34.95;98761.78;5111891;28;20067;-93
2021/06/09 10:43:44;;;;;;;11.53;9.87;;;;;;;27.53;34.52;98772.25;5111600;28;20036;-94
2021/06/09 10:46:11;;;;;;;12.43;9.88;;;;;;;27.62;31.93;98754.09;5110921;28;20405;-93
2021/06/09 10:48:40;;;;;;;11.10;9.25;;;;;;;28.10;35.53;98765.81;5111090;28;20123;-93
2021/06/09 10:51:07;;;;;;;11.90;9.60;;;;;;;28.06;31.53;98759.78;5112838;28;20051;-96
2021/06/09 10:53:35;;;;;;;10.45;9.35;;;;;;;27.63;33.85;98748.47;5111511;28;20131;-94
2021/06/09 10:56:01;;;;;;;10.85;9.18;;;;;;;28.00;35.61;98761.25;5111433;28;20052;-93
2021/06/09 10:58:28;;;;;;;17.58;11.40;;;;;;;28.18;34.73;98760.44;5112218;28;20118;-93
2021/06/09 11:00:56;;;;;;;13.50;9.95;;;;;;;28.18;32.73;98742.16;5110541;28;20036;-92
2021/06/09 11:03:22;;;;;;;11.57;9.33;;;;;;;28.23;33.95;98747.16;5110481;28;20036;-92
2021/06/09 11:05:48;;;;;;;11.73;10.05;;;;;;;28.41;32.58;98739.84;5107582;28;20074;-93
2021/06/09 11:08:16;;;;;;;14.57;10.10;;;;;;;28.58;31.14;98759.16;5096900;28;20040;-93
2021/06/09 11:10:43;;;;;;;11.60;9.30;;;;;;;28.45;31.80;98743.09;5097260;28;20085;-92
2021/06/09 11:13:10;;;;;;;12.43;9.30;;;;;;;28.70;33.73;98752.44;5096679;28;20409;-95
2021/06/09 11:15:39;;;;;;;10.73;9.60;;;;;;;28.83;33.38;98733.72;5095689;28;20452;-95
2021/06/09 11:21:11;;;;;;;11.35;9.10;;;;;;;28.78;32.50;98737.94;5147752;27;20158;-91
2021/06/09 11:23:40;;;;;;;11.60;9.48;;;;;;;28.97;32.44;98736.91;5131740;27;20043;-90
2021/06/09 11:26:22;;;;;;;10.95;8.43;;;;;;;29.00;29.16;98728.41;5132138;27;20047;-91
2021/06/09 11:28:47;;;;;;;9.65;8.50;;;;;;;28.88;32.37;98756.00;5131495;27;20130;-91
2021/06/09 11:31:21;;;;;;;11.73;9.30;;;;;;;28.58;32.24;98757.31;5131794;27;20063;-90
2021/06/09 11:33:56;;;;;;;14.55;9.40;;;;;;;28.95;31.85;98738.94;5132212;27;20118;-91